Port Erroll, United Kingdom
Current Conditions -  °F | °C
As of 8:50 PM on Saturday 25 Oct 2014 (Local Time) from EGPD Reporting Station
Clear Clear  
Wind Chill: 50°   Ceiling: Unl
Heat Index: 50°   Visibility: 6mi
Dew Point: 41°   Wind: 14mph
Humidity: 71%   Direction: 200°SSW
Pressure: 29.53"   Gusts: NA
Location:  57.42°N, 1.83°W
Report Text: EGPD 251950Z 20012KT CAVOK 10/05 Q1000 NOSIG
Loading
Personal Weather Stations






























Interactive Weather Map
Tropical Storm Tracking
New forecast layout! Learn more

10-Day Weather Forecast

Advertisements
Track Severe Weather on mobile